Time;durP1;ratioP1;P1;durP2;ratioP2;P2;SDS_P1;SDS_P2;PMS_P1;PMS_P2;Temp;Humidity;BMP_temperature;BMP_pressure;BME280_temperature;BME280_humidity;BME280_pressure;Samples;Min_cycle;Max_cycle;Signal;HPM_P1;HPM_P2
2022/08/22 00:02:07;;;;;;;5.65;3.35;;;16.70;99.90;;;;;;5032308;28;20235;-66
2022/08/22 00:04:50;;;;;;;5.60;3.15;;;16.70;99.90;;;;;;5031953;28;20190;-65
2022/08/22 00:07:49;;;;;;;4.47;3.13;;;16.60;99.90;;;;;;5016953;28;20180;-66
2022/08/22 00:10:53;;;;;;;4.80;3.33;;;16.50;99.90;;;;;;5016856;28;20157;-65
2022/08/22 00:13:39;;;;;;;4.78;3.03;;;16.50;99.90;;;;;;4976451;28;20261;-65
2022/08/22 00:16:34;;;;;;;4.93;3.40;;;16.40;99.90;;;;;;4999150;28;20179;-66
2022/08/22 00:19:22;;;;;;;6.32;3.13;;;16.40;99.90;;;;;;5016523;28;20160;-65
2022/08/22 00:22:00;;;;;;;9.10;3.65;;;16.30;99.90;;;;;;5017384;28;20576;-65
2022/08/22 00:24:42;;;;;;;5.70;2.90;;;16.40;99.90;;;;;;4999049;28;20696;-65
2022/08/22 00:27:36;;;;;;;7.65;3.28;;;16.40;99.90;;;;;;5016592;28;20176;-65
2022/08/22 00:30:09;;;;;;;3.40;3.00;;;16.40;99.90;;;;;;5016627;28;20618;-66
2022/08/22 00:32:47;;;;;;;5.70;4.05;;;16.40;99.90;;;;;;5016196;28;20537;-66
2022/08/22 00:35:27;;;;;;;5.10;3.58;;;16.40;99.90;;;;;;5016410;28;20160;-65
2022/08/22 00:38:01;;;;;;;4.75;2.92;;;16.30;99.90;;;;;;5031523;28;20330;-65
2022/08/22 00:40:30;;;;;;;5.78;3.50;;;16.30;99.90;;;;;;5031393;28;20286;-65
2022/08/22 00:43:35;;;;;;;4.13;3.25;;;16.20;99.90;;;;;;5016135;28;20198;-65
2022/08/22 00:46:16;;;;;;;5.13;3.47;;;16.10;99.90;;;;;;4997418;28;20194;-66
2022/08/22 00:49:07;;;;;;;6.03;3.30;;;16.10;99.90;;;;;;5015893;28;20167;-65
2022/08/22 00:51:39;;;;;;;5.32;3.60;;;16.00;99.90;;;;;;5015988;28;20562;-66
2022/08/22 00:54:18;;;;;;;10.88;3.50;;;16.00;99.90;;;;;;5015987;28;20178;-66
2022/08/22 00:57:41;;;;;;;5.13;3.40;;;15.90;99.90;;;;;;4998124;28;20205;-65
2022/08/22 01:00:13;;;;;;;5.70;3.28;;;15.90;99.90;;;;;;4939652;29;20277;-65
2022/08/22 01:03:03;;;;;;;6.57;3.65;;;15.80;99.90;;;;;;4955216;28;20253;-66
2022/08/22 01:06:05;;;;;;;5.10;3.50;;;15.80;99.90;;;;;;5003641;28;20246;-65
2022/08/22 01:08:53;;;;;;;5.15;3.53;;;15.80;99.90;;;;;;5015559;28;20595;-65
2022/08/22 01:11:57;;;;;;;5.93;3.47;;;15.70;99.90;;;;;;5015546;28;20195;-65
2022/08/22 01:15:04;;;;;;;4.47;3.20;;;15.70;99.90;;;;;;5014924;28;20669;-65
2022/08/22 01:17:53;;;;;;;6.43;3.40;;;15.70;99.90;;;;;;4994831;28;20187;-65
2022/08/22 01:20:34;;;;;;;4.32;3.45;;;15.70;99.90;;;;;;4997835;28;20653;-65
2022/08/22 01:23:09;;;;;;;7.82;3.67;;;15.70;99.90;;;;;;5015395;28;20195;-65
2022/08/22 01:26:19;;;;;;;4.07;3.40;;;15.70;99.90;;;;;;4997990;28;20234;-65
2022/08/22 01:29:07;;;;;;;7.70;3.90;;;15.50;99.90;;;;;;4982957;28;20184;-65
2022/08/22 01:31:42;;;;;;;6.80;3.80;;;15.50;99.90;;;;;;4997611;28;20207;-65
2022/08/22 01:34:22;;;;;;;4.75;3.65;;;15.40;99.90;;;;;;4997293;28;20258;-65
2022/08/22 01:36:57;;;;;;;5.32;3.88;;;15.30;99.90;;;;;;4997424;28;20187;-65
2022/08/22 01:39:44;;;;;;;4.72;3.50;;;15.20;99.90;;;;;;5015425;28;20175;-65
2022/08/22 01:42:29;;;;;;;5.57;3.50;;;15.30;99.90;;;;;;4997600;28;20211;-65
2022/08/22 01:45:13;;;;;;;7.40;3.90;;;15.20;99.90;;;;;;5015019;28;20171;-65
2022/08/22 01:47:45;;;;;;;4.70;3.35;;;15.20;99.90;;;;;;5014893;28;20160;-65
2022/08/22 01:50:31;;;;;;;6.68;3.88;;;15.20;99.90;;;;;;5015080;28;20243;-65
2022/08/22 01:53:13;;;;;;;6.47;4.00;;;15.20;99.90;;;;;;5014979;28;20196;-65
2022/08/22 01:56:18;;;;;;;6.35;3.88;;;15.30;99.90;;;;;;5014996;28;20243;-66
2022/08/22 01:59:06;;;;;;;5.78;3.95;;;15.20;99.90;;;;;;4995733;28;20196;-65
2022/08/22 02:01:53;;;;;;;4.82;3.67;;;15.20;99.90;;;;;;5014661;28;20294;-66
2022/08/22 02:04:46;;;;;;;6.38;3.90;;;15.10;99.90;;;;;;5014556;28;20241;-65
2022/08/22 02:07:48;;;;;;;7.00;3.75;;;15.10;99.90;;;;;;5015338;28;20175;-65
2022/08/22 02:10:51;;;;;;;9.98;3.90;;;15.10;99.90;;;;;;5014612;28;20176;-65
2022/08/22 02:13:28;;;;;;;9.00;3.80;;;15.00;99.90;;;;;;5014915;28;20199;-65
2022/08/22 02:16:17;;;;;;;3.92;3.58;;;14.90;99.90;;;;;;5014474;28;20162;-65
2022/08/22 02:19:10;;;;;;;4.85;3.53;;;14.80;99.90;;;;;;5005241;28;20183;-65
2022/08/22 02:21:57;;;;;;;6.47;3.70;;;14.80;99.90;;;;;;4997101;28;20350;-66
2022/08/22 02:24:48;;;;;;;4.60;3.60;;;14.80;99.90;;;;;;5015729;28;20171;-65
2022/08/22 02:27:53;;;;;;;5.32;3.25;;;14.80;99.90;;;;;;5014983;28;20179;-65
2022/08/22 02:30:44;;;;;;;4.38;3.80;;;14.80;99.90;;;;;;5013735;28;20218;-65
2022/08/22 02:33:42;;;;;;;6.70;4.13;;;14.80;99.90;;;;;;4996421;28;20282;-65
2022/08/22 02:36:23;;;;;;;5.30;3.97;;;14.80;99.90;;;;;;4996821;28;20188;-65
2022/08/22 02:39:01;;;;;;;6.60;3.55;;;14.80;99.90;;;;;;5014527;28;20617;-65
2022/08/22 02:41:44;;;;;;;5.55;4.15;;;14.90;99.90;;;;;;5013922;28;20261;-65
2022/08/22 02:44:28;;;;;;;5.05;3.83;;;14.90;99.90;;;;;;5029261;28;20167;-65
2022/08/22 02:47:24;;;;;;;5.82;3.90;;;14.80;99.90;;;;;;5013922;28;20286;-65
2022/08/22 02:50:04;;;;;;;8.65;4.53;;;14.80;99.90;;;;;;5013605;28;20176;-65
2022/08/22 02:52:48;;;;;;;6.20;4.68;;;14.70;99.90;;;;;;5014152;28;20198;-65
2022/08/22 02:55:47;;;;;;;8.82;4.85;;;14.70;99.90;;;;;;4996552;28;20218;-65
2022/08/22 02:58:39;;;;;;;6.22;4.53;;;14.60;99.90;;;;;;5014330;28;20223;-66
2022/08/22 03:01:28;;;;;;;5.28;4.28;;;14.60;99.90;;;;;;5013008;28;20262;-65
2022/08/22 03:04:24;;;;;;;9.90;5.00;;;14.50;99.90;;;;;;4996285;28;20218;-65
2022/08/22 03:07:24;;;;;;;7.35;3.88;;;14.50;99.90;;;;;;5014181;28;20590;-65
2022/08/22 03:10:11;;;;;;;4.90;3.80;;;14.40;99.90;;;;;;5013742;28;20163;-66
2022/08/22 03:13:08;;;;;;;5.70;3.80;;;14.40;99.90;;;;;;5013918;28;20196;-65
2022/08/22 03:15:40;;;;;;;6.50;4.00;;;14.30;99.90;;;;;;5013672;28;20222;-65
2022/08/22 03:18:31;;;;;;;6.88;4.40;;;14.30;99.90;;;;;;4995972;28;20720;-65
2022/08/22 03:21:14;;;;;;;4.35;3.90;;;14.30;99.90;;;;;;5013615;28;20687;-65
2022/08/22 03:24:03;;;;;;;4.97;4.00;;;14.20;99.90;;;;;;5028849;28;20648;-65
2022/08/22 03:26:35;;;;;;;5.03;4.03;;;14.20;99.90;;;;;;4973791;28;20196;-65
2022/08/22 03:29:24;;;;;;;9.13;4.45;;;14.20;99.90;;;;;;5013827;28;20517;-66
2022/08/22 03:32:10;;;;;;;8.18;4.13;;;14.20;99.90;;;;;;5005527;28;20299;-66
2022/08/22 03:34:37;;;;;;;5.97;3.90;;;14.20;99.90;;;;;;5028654;28;20180;-65
2022/08/22 03:37:19;;;;;;;6.10;3.90;;;14.20;99.90;;;;;;5013527;28;20191;-65
2022/08/22 03:40:22;;;;;;;5.90;4.28;;;14.10;99.90;;;;;;5013483;28;20183;-65
2022/08/22 03:43:00;;;;;;;7.30;4.10;;;14.10;99.90;;;;;;4995752;28;20203;-65
2022/08/22 03:45:37;;;;;;;4.43;3.90;;;14.20;99.90;;;;;;5013553;28;20180;-65
2022/08/22 03:48:24;;;;;;;4.60;4.20;;;14.20;99.90;;;;;;5013119;28;20210;-65
2022/08/22 03:51:19;;;;;;;6.50;4.47;;;14.20;99.90;;;;;;5013562;28;20179;-67
2022/08/22 03:53:45;;;;;;;4.88;4.45;;;14.20;99.90;;;;;;4995814;28;20318;-65
2022/08/22 03:56:43;;;;;;;6.38;4.38;;;14.20;99.90;;;;;;5013270;28;20613;-65
2022/08/22 03:59:39;;;;;;;8.73;4.75;;;14.20;99.90;;;;;;5013815;28;20187;-65
2022/08/22 04:02:41;;;;;;;8.00;4.93;;;14.20;99.90;;;;;;5013215;28;20214;-65
2022/08/22 04:05:16;;;;;;;8.45;4.78;;;14.20;99.90;;;;;;5028418;28;20238;-65
2022/08/22 04:08:04;;;;;;;6.38;5.35;;;14.20;99.90;;;;;;5000416;28;20176;-65
2022/08/22 04:10:35;;;;;;;7.38;4.70;;;14.20;99.90;;;;;;4993875;28;20642;-65
2022/08/22 04:13:07;;;;;;;5.60;5.07;;;14.10;99.90;;;;;;4996772;28;20211;-66
2022/08/22 04:15:36;;;;;;;7.10;4.63;;;14.10;99.90;;;;;;4996429;28;20208;-65
2022/08/22 04:18:20;;;;;;;6.60;5.50;;;14.00;99.90;;;;;;4996236;28;20197;-65
2022/08/22 04:21:07;;;;;;;8.27;4.75;;;14.10;99.90;;;;;;4997608;28;20243;-65
2022/08/22 04:23:39;;;;;;;10.68;5.47;;;14.10;99.90;;;;;;4997126;28;20270;-65
2022/08/22 04:26:35;;;;;;;6.68;4.95;;;14.10;99.90;;;;;;4996944;28;20661;-65
2022/08/22 04:29:32;;;;;;;6.40;5.32;;;14.20;99.90;;;;;;4996868;28;20618;-65
2022/08/22 04:32:16;;;;;;;7.25;5.30;;;14.10;99.90;;;;;;4996694;28;20226;-65
2022/08/22 04:34:58;;;;;;;11.32;5.38;;;14.10;99.90;;;;;;4996444;28;20169;-65
2022/08/22 04:38:04;;;;;;;6.22;5.60;;;14.00;99.90;;;;;;5007188;28;20190;-65
2022/08/22 04:40:34;;;;;;;7.35;5.78;;;13.90;99.90;;;;;;5015764;28;20207;-65
2022/08/22 04:43:09;;;;;;;8.98;6.05;;;13.90;99.90;;;;;;5016228;28;20196;-65
2022/08/22 04:45:40;;;;;;;11.13;6.00;;;13.80;99.90;;;;;;5016898;28;20214;-65
2022/08/22 04:48:15;;;;;;;11.57;6.68;;;13.80;99.90;;;;;;5015806;28;20625;-64
2022/08/22 04:50:59;;;;;;;7.72;6.47;;;13.80;99.90;;;;;;5016085;28;20209;-65
2022/08/22 04:53:47;;;;;;;12.15;5.90;;;13.80;99.90;;;;;;5016353;28;20196;-65
2022/08/22 04:56:41;;;;;;;9.43;5.90;;;13.80;99.90;;;;;;5016008;28;20188;-65
2022/08/22 04:59:12;;;;;;;9.18;5.63;;;13.70;99.90;;;;;;5016059;28;20251;-65
2022/08/22 05:01:53;;;;;;;7.80;6.45;;;13.70;99.90;;;;;;5015794;28;20207;-65
2022/08/22 05:04:26;;;;;;;8.88;5.97;;;13.70;99.90;;;;;;5015406;28;20649;-65
2022/08/22 05:07:20;;;;;;;8.15;5.70;;;13.80;99.90;;;;;;5015867;28;20265;-65
2022/08/22 05:09:57;;;;;;;9.18;6.40;;;13.80;99.90;;;;;;5030873;28;20529;-65
2022/08/22 05:12:34;;;;;;;11.48;6.55;;;13.90;99.90;;;;;;4998434;28;20196;-65
2022/08/22 05:15:27;;;;;;;9.55;5.20;;;14.00;99.90;;;;;;5015559;28;20164;-65
2022/08/22 05:17:58;;;;;;;9.18;5.07;;;14.00;99.90;;;;;;5016154;28;20171;-65
2022/08/22 05:20:27;;;;;;;8.45;5.75;;;14.00;99.90;;;;;;5015134;28;20160;-65
2022/08/22 05:22:59;;;;;;;8.60;4.97;;;14.10;99.90;;;;;;5015331;28;20192;-65
2022/08/22 05:25:29;;;;;;;10.02;5.95;;;14.10;99.90;;;;;;4997379;28;20167;-65
2022/08/22 05:28:06;;;;;;;10.23;5.88;;;14.20;99.90;;;;;;5015552;28;20168;-67
2022/08/22 05:30:34;;;;;;;10.60;5.57;;;14.30;99.90;;;;;;5030966;28;20168;-67
2022/08/22 05:33:24;;;;;;;8.18;6.10;;;14.40;99.90;;;;;;5015246;28;20195;-67
2022/08/22 05:35:56;;;;;;;8.10;5.53;;;14.40;99.90;;;;;;5030819;28;20234;-67
2022/08/22 05:38:30;;;;;;;8.25;6.10;;;14.50;99.90;;;;;;4997899;28;20192;-68
2022/08/22 05:41:10;;;;;;;10.82;5.90;;;14.50;99.90;;;;;;5015633;28;20226;-67
2022/08/22 05:43:40;;;;;;;7.43;5.70;;;14.60;99.90;;;;;;5030379;28;20617;-67
2022/08/22 05:46:14;;;;;;;11.38;6.07;;;14.70;99.90;;;;;;5014993;28;20215;-67
2022/08/22 05:48:47;;;;;;;12.07;6.60;;;14.80;99.90;;;;;;5030175;28;20168;-67
2022/08/22 05:51:25;;;;;;;11.82;6.18;;;14.90;99.90;;;;;;5014956;28;20251;-67
2022/08/22 05:54:07;;;;;;;10.02;6.10;;;14.90;99.90;;;;;;5015236;28;20198;-67
2022/08/22 05:56:41;;;;;;;7.90;5.97;;;14.90;99.90;;;;;;5014971;28;20218;-67
2022/08/22 05:59:29;;;;;;;9.45;6.25;;;14.90;99.90;;;;;;5015341;28;20259;-67
2022/08/22 06:02:06;;;;;;;9.25;6.85;;;14.90;99.90;;;;;;5014521;28;20211;-65
2022/08/22 06:05:01;;;;;;;9.63;6.20;;;15.00;99.90;;;;;;5014550;28;20243;-67
2022/08/22 06:07:38;;;;;;;10.75;6.75;;;15.00;99.90;;;;;;5014466;28;20224;-67
2022/08/22 06:10:30;;;;;;;9.88;6.22;;;15.10;99.90;;;;;;4996941;28;20625;-67
2022/08/22 06:13:10;;;;;;;11.77;6.80;;;15.20;99.90;;;;;;5029753;28;20702;-70
2022/08/22 06:15:45;;;;;;;16.23;6.78;;;15.20;99.90;;;;;;5015121;28;20160;-67
2022/08/22 06:18:19;;;;;;;10.82;7.13;;;15.20;99.90;;;;;;5029847;28;20543;-67
2022/08/22 06:20:58;;;;;;;8.45;6.53;;;15.20;99.90;;;;;;5014262;28;20190;-68
2022/08/22 06:23:28;;;;;;;8.60;6.43;;;15.30;99.90;;;;;;5014405;28;20194;-67
2022/08/22 06:25:58;;;;;;;13.10;8.27;;;15.40;99.90;;;;;;5015212;28;20176;-68
2022/08/22 06:28:28;;;;;;;12.23;7.82;;;15.60;99.90;;;;;;5030159;28;20175;-68
2022/08/22 06:30:56;;;;;;;11.10;6.75;;;15.70;99.90;;;;;;5014655;28;20258;-67
2022/08/22 06:33:27;;;;;;;8.27;6.55;;;15.80;99.90;;;;;;5014537;28;20195;-68
2022/08/22 06:36:30;;;;;;;9.75;7.07;;;16.00;99.90;;;;;;5014808;28;20156;-68
2022/08/22 06:39:02;;;;;;;11.30;7.05;;;16.20;99.90;;;;;;4996936;28;20649;-68
2022/08/22 06:41:31;;;;;;;10.05;7.55;;;16.30;99.90;;;;;;5014430;28;20219;-68
2022/08/22 06:44:01;;;;;;;13.20;7.43;;;16.40;99.90;;;;;;5014219;28;20168;-68
2022/08/22 06:46:28;;;;;;;10.48;7.75;;;16.50;99.90;;;;;;5014298;28;20218;-68
2022/08/22 06:48:55;;;;;;;11.98;7.60;;;16.60;99.90;;;;;;5013774;28;20168;-68
2022/08/22 06:51:23;;;;;;;12.40;7.22;;;16.70;99.90;;;;;;5014377;28;20156;-67
2022/08/22 06:53:55;;;;;;;8.55;6.65;;;16.80;99.90;;;;;;5013906;28;20660;-68
2022/08/22 06:56:28;;;;;;;9.18;6.13;;;16.90;99.90;;;;;;5013779;28;20278;-68
2022/08/22 06:58:59;;;;;;;12.32;6.93;;;17.10;99.90;;;;;;5014370;28;20187;-68
2022/08/22 07:01:29;;;;;;;8.82;6.90;;;17.30;99.90;;;;;;5014014;28;20206;-68
2022/08/22 07:04:06;;;;;;;13.40;7.18;;;17.40;99.90;;;;;;5013763;28;20238;-67
2022/08/22 07:06:47;;;;;;;10.10;6.95;;;17.50;99.90;;;;;;4996098;28;20266;-68
2022/08/22 07:09:20;;;;;;;7.45;6.10;;;17.60;99.90;;;;;;5028832;28;20232;-67
2022/08/22 07:11:47;;;;;;;9.88;7.40;;;17.80;99.90;;;;;;4995902;28;20751;-68
2022/08/22 07:14:16;;;;;;;9.73;6.80;;;18.00;99.90;;;;;;5013573;28;20215;-67
2022/08/22 07:16:55;;;;;;;12.05;6.38;;;18.10;99.90;;;;;;5014151;28;20260;-68
2022/08/22 07:19:31;;;;;;;11.63;7.05;;;18.20;99.90;;;;;;5013374;28;20646;-67
2022/08/22 07:21:59;;;;;;;11.32;6.80;;;18.30;99.90;;;;;;5013322;28;20291;-68
2022/08/22 07:24:30;;;;;;;10.70;6.45;;;18.40;99.90;;;;;;5013893;28;20247;-65
2022/08/22 07:27:28;;;;;;;8.48;6.22;;;18.60;99.90;;;;;;5028620;28;20191;-67
2022/08/22 07:30:09;;;;;;;10.90;6.07;;;18.70;99.90;;;;;;4992999;28;20187;-67
2022/08/22 07:32:52;;;;;;;10.75;6.68;;;18.80;99.90;;;;;;5013468;28;20191;-67
2022/08/22 07:35:29;;;;;;;10.93;6.10;;;19.00;99.90;;;;;;4995503;28;20190;-65
2022/08/22 07:38:03;;;;;;;11.35;6.07;;;19.10;99.90;;;;;;5013208;28;20179;-64
2022/08/22 07:41:10;;;;;;;11.88;6.32;;;19.20;99.90;;;;;;5013220;28;20164;-65
2022/08/22 07:43:44;;;;;;;11.13;5.10;;;19.30;99.90;;;;;;5013456;28;20211;-64
2022/08/22 07:46:19;;;;;;;7.25;4.90;;;19.40;99.90;;;;;;4995524;28;20176;-64
2022/08/22 07:48:53;;;;;;;7.60;5.40;;;19.50;99.90;;;;;;4998729;28;20163;-65
2022/08/22 07:51:38;;;;;;;6.30;4.85;;;19.60;99.90;;;;;;5017028;28;20648;-64
2022/08/22 07:54:13;;;;;;;10.63;5.63;;;19.70;99.90;;;;;;5017092;28;20618;-64
2022/08/22 07:56:52;;;;;;;9.43;4.53;;;19.70;99.90;;;;;;5016758;28;20187;-64
2022/08/22 07:59:19;;;;;;;6.53;3.65;;;19.90;99.90;;;;;;5017089;28;20163;-64
2022/08/22 08:01:50;;;;;;;8.68;4.20;;;19.90;99.90;;;;;;5016519;28;20207;-64
2022/08/22 08:04:23;;;;;;;10.70;4.93;;;19.90;99.90;;;;;;5016908;28;20162;-64
2022/08/22 08:06:55;;;;;;;10.15;4.97;;;20.00;99.90;;;;;;5016556;28;20183;-64
2022/08/22 08:09:23;;;;;;;9.98;3.95;;;20.10;99.90;;;;;;4999018;28;20175;-64
2022/08/22 08:11:52;;;;;;;8.05;3.63;;;20.30;99.90;;;;;;5016443;28;20196;-64
2022/08/22 08:14:20;;;;;;;7.63;3.65;;;20.40;99.90;;;;;;5016742;28;20199;-64
2022/08/22 08:17:00;;;;;;;7.10;4.00;;;20.60;99.90;;;;;;5017019;28;20203;-64
2022/08/22 08:19:28;;;;;;;5.93;3.20;;;20.80;99.90;;;;;;4998558;28;20172;-64
2022/08/22 08:21:55;;;;;;;9.50;3.58;;;21.00;99.90;;;;;;4998581;28;20227;-64
2022/08/22 08:24:27;;;;;;;4.95;2.75;;;21.20;99.90;;;;;;5016252;28;20176;-64
2022/08/22 08:29:50;;;;;;;4.03;2.80;;;21.30;99.90;;;;;;5016791;28;20232;-65
2022/08/22 08:32:17;;;;;;;5.00;3.00;;;21.40;99.90;;;;;;5016194;28;20605;-66
2022/08/22 08:34:43;;;;;;;5.30;2.60;;;21.40;99.90;;;;;;5016265;28;20197;-66
2022/08/22 08:37:23;;;;;;;4.25;2.50;;;21.50;99.90;;;;;;5016294;28;20187;-65
2022/08/22 08:39:55;;;;;;;3.72;2.35;;;21.60;99.90;;;;;;5015945;28;20168;-65
2022/08/22 08:45:43;;;;;;;7.13;3.03;;;21.80;99.90;;;;;;5016148;28;20684;-65
2022/08/22 08:48:22;;;;;;;6.05;2.63;;;21.80;99.90;;;;;;5016203;28;20506;-65
2022/08/22 08:50:57;;;;;;;4.75;2.47;;;21.90;99.90;;;;;;5015681;28;20164;-64
2022/08/22 08:53:45;;;;;;;6.07;2.35;;;22.00;99.90;;;;;;5015671;28;20195;-65
2022/08/22 08:56:37;;;;;;;3.40;2.30;;;22.20;99.90;;;;;;5015758;28;20187;-65
2022/08/22 08:59:25;;;;;;;3.95;2.10;;;22.40;99.90;;;;;;5014903;28;20164;-65
2022/08/22 09:02:09;;;;;;;3.65;2.20;;;22.60;99.90;;;;;;5015417;28;20292;-65
2022/08/22 09:04:37;;;;;;;4.60;2.67;;;22.70;99.90;;;;;;5030506;28;20179;-65
2022/08/22 09:07:18;;;;;;;8.25;2.55;;;22.90;99.90;;;;;;5015359;28;20664;-66
2022/08/22 09:10:18;;;;;;;7.60;2.47;;;23.20;99.90;;;;;;5015372;28;20633;-65
2022/08/22 09:13:00;;;;;;;3.70;2.20;;;23.40;99.90;;;;;;5015262;28;20283;-66
2022/08/22 09:15:44;;;;;;;3.70;2.28;;;23.70;99.90;;;;;;5031405;28;20168;-66
2022/08/22 09:18:38;;;;;;;5.60;2.30;;;23.90;99.90;;;;;;4997689;28;20168;-66
2022/08/22 09:21:03;;;;;;;5.13;2.20;;;24.10;99.90;;;;;;5015097;28;20191;-73
2022/08/22 09:23:46;;;;;;;3.90;2.22;;;24.30;99.90;;;;;;5015127;28;20194;-64
2022/08/22 09:26:20;;;;;;;3.20;2.03;;;24.40;99.90;;;;;;5030401;28;20167;-64
2022/08/22 09:28:54;;;;;;;5.53;2.28;;;24.60;99.90;;;;;;5015712;28;20607;-64
2022/08/22 09:31:42;;;;;;;3.75;2.28;;;24.60;99.90;;;;;;4997455;28;20297;-64
2022/08/22 09:34:28;;;;;;;7.57;2.38;;;24.60;99.90;;;;;;5015373;28;20175;-64
2022/08/22 09:37:32;;;;;;;3.15;1.90;;;24.70;99.90;;;;;;5015173;28;20271;-64
2022/08/22 09:40:14;;;;;;;6.93;2.35;;;24.80;99.90;;;;;;5015261;28;20172;-64
2022/08/22 09:43:01;;;;;;;5.68;2.25;;;24.80;99.90;;;;;;4997301;28;20223;-64
2022/08/22 09:45:44;;;;;;;7.32;2.38;;;24.90;99.90;;;;;;5015327;28;20160;-64
2022/08/22 09:48:18;;;;;;;4.35;2.20;;;24.90;99.90;;;;;;5014854;28;20160;-64
2022/08/22 09:50:51;;;;;;;3.88;2.30;;;25.00;99.90;;;;;;5014664;28;20152;-64
2022/08/22 09:53:51;;;;;;;3.15;1.90;;;25.00;99.90;;;;;;5014604;28;20289;-64
2022/08/22 09:56:38;;;;;;;3.70;2.10;;;25.00;99.90;;;;;;5003737;28;20590;-64
2022/08/22 09:59:35;;;;;;;6.50;2.45;;;25.20;99.90;;;;;;4997528;28;20326;-64
2022/08/22 10:02:25;;;;;;;7.60;2.50;;;25.30;99.90;;;;;;5014766;28;20242;-64
2022/08/22 10:05:00;;;;;;;2.58;1.83;;;25.40;99.90;;;;;;5014632;28;20175;-64
2022/08/22 10:07:57;;;;;;;5.63;2.40;;;25.40;99.90;;;;;;5014395;28;20180;-64
2022/08/22 10:10:49;;;;;;;4.30;2.38;;;25.40;99.90;;;;;;4981332;28;20278;-64
2022/08/22 10:13:33;;;;;;;6.75;2.40;;;25.40;99.90;;;;;;5014403;28;20223;-64
2022/08/22 10:16:11;;;;;;;5.00;2.30;;;25.40;99.90;;;;;;5014296;28;20159;-64
2022/08/22 10:18:55;;;;;;;5.15;2.60;;;25.50;99.90;;;;;;5014344;28;20156;-64
2022/08/22 10:21:36;;;;;;;4.90;2.30;;;25.50;99.90;;;;;;5013895;28;20198;-64
2022/08/22 10:24:22;;;;;;;7.22;2.42;;;25.60;99.90;;;;;;4996661;28;20615;-65
2022/08/22 10:26:55;;;;;;;4.28;2.70;;;25.60;99.90;;;;;;5014381;28;20186;-64
2022/08/22 10:29:36;;;;;;;5.72;2.38;;;25.60;99.90;;;;;;5014551;28;20620;-65
2022/08/22 10:32:29;;;;;;;8.13;2.58;;;25.60;99.90;;;;;;5014659;28;20196;-64
2022/08/22 10:35:01;;;;;;;3.20;2.30;;;25.60;99.90;;;;;;4996854;28;20262;-64
2022/08/22 10:37:51;;;;;;;6.05;2.47;;;25.70;99.90;;;;;;4997171;28;20195;-64
2022/08/22 10:40:35;;;;;;;5.97;2.78;;;25.70;99.90;;;;;;5014573;28;20218;-64
2022/08/22 10:43:08;;;;;;;5.40;2.25;;;25.70;99.90;;;;;;5014204;28;20200;-64
2022/08/22 10:45:42;;;;;;;6.47;2.60;;;25.70;99.90;;;;;;5014023;28;20247;-64
2022/08/22 10:48:08;;;;;;;6.97;2.65;;;25.70;99.90;;;;;;5013896;28;20164;-65
2022/08/22 10:51:07;;;;;;;5.13;2.30;;;25.80;99.90;;;;;;4995917;28;20172;-65
2022/08/22 10:53:55;;;;;;;6.60;2.42;;;25.90;99.90;;;;;;4985706;28;20191;-65
2022/08/22 10:56:41;;;;;;;6.05;2.25;;;25.90;99.90;;;;;;5013827;28;20187;-65
2022/08/22 10:59:42;;;;;;;6.35;2.75;;;26.00;99.90;;;;;;5013740;28;20179;-65
2022/08/22 11:02:39;;;;;;;4.07;2.80;;;26.00;99.90;;;;;;5013886;28;20269;-65
2022/08/22 11:05:33;;;;;;;6.35;2.75;;;26.00;99.90;;;;;;5013592;28;20225;-65
2022/08/22 11:08:31;;;;;;;5.43;2.53;;;26.10;99.90;;;;;;5013563;28;20263;-65
2022/08/22 11:11:25;;;;;;;7.03;2.70;;;26.30;99.90;;;;;;5001899;28;20219;-65
2022/08/22 11:13:53;;;;;;;5.88;2.58;;;26.40;99.90;;;;;;5013865;28;20164;-65
2022/08/22 11:16:37;;;;;;;5.35;3.03;;;26.70;99.90;;;;;;4995918;28;20543;-65
2022/08/22 11:19:27;;;;;;;3.72;2.40;;;26.80;99.90;;;;;;5013624;28;20156;-65
2022/08/22 11:22:05;;;;;;;6.40;2.53;;;27.00;99.90;;;;;;5013871;28;20210;-65
2022/08/22 11:25:07;;;;;;;9.07;3.00;;;27.10;99.90;;;;;;5017531;28;20221;-65
2022/08/22 11:27:54;;;;;;;5.72;2.83;;;27.20;99.90;;;;;;4941371;29;20547;-65
2022/08/22 11:30:23;;;;;;;6.00;2.88;;;27.30;99.90;;;;;;5013991;28;20196;-66
2022/08/22 11:33:00;;;;;;;4.82;2.70;;;27.50;99.90;;;;;;5017409;28;20242;-65
2022/08/22 11:36:04;;;;;;;8.18;2.45;;;27.70;99.90;;;;;;5017759;28;20189;-65
2022/08/22 11:38:58;;;;;;;8.35;2.78;;;27.90;99.90;;;;;;5017125;28;20206;-65
2022/08/22 11:41:43;;;;;;;3.97;2.35;;;27.80;99.90;;;;;;5016984;28;20199;-65
2022/08/22 11:44:32;;;;;;;3.72;2.60;;;27.80;99.90;;;;;;5017178;28;20509;-65
2022/08/22 11:47:00;;;;;;;2.63;2.15;;;27.50;99.90;;;;;;5017181;28;20231;-65
2022/08/22 11:50:13;;;;;;;5.32;2.22;;;27.30;99.90;;;;;;5016845;28;20669;-65
2022/08/22 11:52:50;;;;;;;9.52;2.83;;;27.00;99.90;;;;;;5011501;28;20208;-65
2022/08/22 11:55:47;;;;;;;7.05;2.83;;;27.20;99.90;;;;;;5017015;28;20632;-65
2022/08/22 11:58:25;;;;;;;6.53;2.70;;;27.60;99.90;;;;;;5016976;28;20160;-65
2022/08/22 12:01:07;;;;;;;6.53;2.55;;;28.00;99.90;;;;;;5016852;28;20204;-65
2022/08/22 12:03:45;;;;;;;6.63;2.60;;;28.30;99.90;;;;;;5017725;28;20507;-65
2022/08/22 12:06:29;;;;;;;4.72;2.45;;;28.60;99.90;;;;;;5016525;28;20229;-65
2022/08/22 12:09:06;;;;;;;5.20;2.53;;;28.90;99.90;;;;;;5017055;28;20566;-66
2022/08/22 12:11:46;;;;;;;4.57;2.42;;;29.10;99.90;;;;;;4998933;28;20265;-65
2022/08/22 12:14:44;;;;;;;5.07;2.55;;;29.40;99.90;;;;;;5017102;28;20187;-65
2022/08/22 12:17:47;;;;;;;3.03;2.22;;;29.50;99.90;;;;;;5016937;28;20160;-65
2022/08/22 12:20:41;;;;;;;2.72;2.00;;;29.60;99.90;;;;;;5017016;28;20186;-65
2022/08/22 12:23:25;;;;;;;7.35;2.35;;;29.90;99.90;;;;;;4993880;28;20226;-65
2022/08/22 12:26:14;;;;;;;5.20;2.63;;;30.00;99.90;;;;;;4999145;28;20171;-66
2022/08/22 12:29:11;;;;;;;3.67;2.05;;;30.00;99.90;;;;;;5016664;28;20526;-67
2022/08/22 12:32:06;;;;;;;2.47;2.10;;;30.20;99.90;;;;;;4998876;28;20196;-67
2022/08/22 12:34:31;;;;;;;4.93;2.80;;;30.50;99.90;;;;;;5003011;28;20188;-67
2022/08/22 12:37:32;;;;;;;5.45;2.72;;;30.40;99.90;;;;;;5016120;28;20184;-67
2022/08/22 12:40:01;;;;;;;3.08;2.47;;;30.40;99.90;;;;;;5013220;28;20250;-67
2022/08/22 12:42:45;;;;;;;5.25;2.92;;;30.20;99.90;;;;;;5016139;28;20207;-67
2022/08/22 12:45:48;;;;;;;4.57;2.63;;;30.00;99.90;;;;;;5016282;28;20156;-67
2022/08/22 12:48:35;;;;;;;4.60;2.40;;;30.00;99.90;;;;;;4998550;28;20175;-67
2022/08/22 12:51:24;;;;;;;5.75;2.80;;;29.80;99.90;;;;;;5016144;28;20183;-67
2022/08/22 12:54:36;;;;;;;5.63;2.85;;;29.70;99.90;;;;;;5016203;28;20211;-67
2022/08/22 12:57:35;;;;;;;4.38;2.60;;;29.30;99.90;;;;;;4936692;29;20209;-67
2022/08/22 13:00:19;;;;;;;5.15;2.90;;;28.80;99.90;;;;;;4938091;29;20289;-67
2022/08/22 13:02:50;;;;;;;9.25;3.13;;;28.30;99.90;;;;;;5001795;28;20285;-67
2022/08/22 13:05:23;;;;;;;4.68;3.10;;;28.10;99.90;;;;;;4998833;28;20172;-67
2022/08/22 13:07:57;;;;;;;4.05;2.45;;;27.80;99.90;;;;;;5016364;28;20215;-67
2022/08/22 13:10:41;;;;;;;5.50;2.80;;;27.70;99.90;;;;;;5015946;28;20163;-67
2022/08/22 13:13:12;;;;;;;5.78;2.65;;;27.70;99.90;;;;;;5015846;28;20202;-67
2022/08/22 13:15:43;;;;;;;4.50;2.80;;;27.60;99.90;;;;;;5016132;28;20199;-67
2022/08/22 13:18:20;;;;;;;3.38;2.33;;;27.50;99.90;;;;;;5015837;28;20180;-67
2022/08/22 13:20:50;;;;;;;5.80;2.80;;;27.50;99.90;;;;;;5015308;28;20239;-67
2022/08/22 13:23:25;;;;;;;5.00;2.90;;;27.40;99.90;;;;;;5015365;28;20278;-67
2022/08/22 13:26:16;;;;;;;4.57;2.63;;;27.30;99.90;;;;;;4997883;28;20164;-67
2022/08/22 13:28:54;;;;;;;3.60;2.60;;;27.40;99.90;;;;;;5030601;28;20165;-67
2022/08/22 13:31:27;;;;;;;5.50;2.80;;;27.50;99.90;;;;;;4997641;28;20172;-67
2022/08/22 13:34:39;;;;;;;5.55;2.83;;;27.50;99.90;;;;;;5015583;28;20222;-67
2022/08/22 13:37:11;;;;;;;2.60;2.13;;;27.60;99.90;;;;;;5011578;28;20565;-67
2022/08/22 13:39:42;;;;;;;4.50;2.70;;;27.70;99.90;;;;;;5015992;28;20168;-68
2022/08/22 13:42:17;;;;;;;7.63;2.90;;;27.80;99.90;;;;;;4997307;28;20219;-68
2022/08/22 13:44:47;;;;;;;3.42;2.40;;;27.70;99.90;;;;;;5014522;28;20170;-68
2022/08/22 13:47:17;;;;;;;3.67;2.20;;;27.70;99.90;;;;;;5015266;28;20168;-68
2022/08/22 13:49:47;;;;;;;7.55;2.58;;;27.60;99.90;;;;;;5015178;28;20160;-68
2022/08/22 13:52:35;;;;;;;5.15;2.70;;;27.50;99.90;;;;;;5014975;28;20195;-68
2022/08/22 13:55:25;;;;;;;6.10;2.83;;;27.40;99.90;;;;;;5015250;28;20208;-68
2022/08/22 13:58:00;;;;;;;4.13;2.38;;;27.30;99.90;;;;;;4997349;28;20203;-68
2022/08/22 14:00:34;;;;;;;4.57;2.50;;;27.30;99.90;;;;;;4997267;28;20640;-68
2022/08/22 14:03:05;;;;;;;4.38;2.45;;;27.20;99.90;;;;;;5014639;28;20226;-68
2022/08/22 14:05:34;;;;;;;3.78;2.70;;;27.10;99.90;;;;;;5014326;28;20179;-68
2022/08/22 14:08:16;;;;;;;3.65;2.30;;;27.00;99.90;;;;;;5014693;28;20219;-68
2022/08/22 14:10:49;;;;;;;7.20;3.00;;;26.90;99.90;;;;;;5014724;28;20152;-67